sensor_id;sensor_type;location;lat;lon;timestamp;P1;durP1;ratioP1;P2;durP2;ratioP2
37001;SDS011;22913;51.910;8.374;2022-12-18T00:02:22;12.98;;;8.85;;
37001;SDS011;22913;51.910;8.374;2022-12-18T00:05:08;13.05;;;9.18;;
37001;SDS011;22913;51.910;8.374;2022-12-18T00:07:53;15.80;;;9.82;;
37001;SDS011;22913;51.910;8.374;2022-12-18T00:10:39;15.27;;;9.93;;
37001;SDS011;22913;51.910;8.374;2022-12-18T00:13:25;10.60;;;8.23;;
37001;SDS011;22913;51.910;8.374;2022-12-18T00:16:13;12.88;;;8.90;;
37001;SDS011;22913;51.910;8.374;2022-12-18T00:19:00;12.35;;;8.05;;
37001;SDS011;22913;51.910;8.374;2022-12-18T00:21:46;8.85;;;7.63;;
37001;SDS011;22913;51.910;8.374;2022-12-18T00:24:32;13.30;;;8.77;;
37001;SDS011;22913;51.910;8.374;2022-12-18T00:27:17;14.07;;;7.80;;
37001;SDS011;22913;51.910;8.374;2022-12-18T00:30:03;13.55;;;8.43;;
37001;SDS011;22913;51.910;8.374;2022-12-18T00:32:51;11.18;;;8.07;;
37001;SDS011;22913;51.910;8.374;2022-12-18T00:35:36;11.57;;;8.10;;
37001;SDS011;22913;51.910;8.374;2022-12-18T00:38:22;15.38;;;9.20;;
37001;SDS011;22913;51.910;8.374;2022-12-18T00:41:09;13.13;;;8.65;;
37001;SDS011;22913;51.910;8.374;2022-12-18T00:43:55;12.07;;;8.27;;
37001;SDS011;22913;51.910;8.374;2022-12-18T00:46:40;13.52;;;8.15;;
37001;SDS011;22913;51.910;8.374;2022-12-18T00:49:28;13.48;;;7.88;;
37001;SDS011;22913;51.910;8.374;2022-12-18T00:52:14;9.43;;;7.20;;
37001;SDS011;22913;51.910;8.374;2022-12-18T00:55:00;11.57;;;7.55;;
37001;SDS011;22913;51.910;8.374;2022-12-18T00:57:46;9.27;;;6.72;;
37001;SDS011;22913;51.910;8.374;2022-12-18T01:00:32;11.20;;;8.40;;
37001;SDS011;22913;51.910;8.374;2022-12-18T01:03:18;8.43;;;6.00;;
37001;SDS011;22913;51.910;8.374;2022-12-18T01:06:07;9.10;;;6.72;;
37001;SDS011;22913;51.910;8.374;2022-12-18T01:08:55;12.18;;;7.10;;
37001;SDS011;22913;51.910;8.374;2022-12-18T01:11:42;11.30;;;7.40;;
37001;SDS011;22913;51.910;8.374;2022-12-18T01:14:28;9.30;;;6.57;;
37001;SDS011;22913;51.910;8.374;2022-12-18T01:17:16;9.15;;;6.88;;
37001;SDS011;22913;51.910;8.374;2022-12-18T01:20:03;11.45;;;7.80;;
37001;SDS011;22913;51.910;8.374;2022-12-18T01:22:51;11.15;;;7.18;;
37001;SDS011;22913;51.910;8.374;2022-12-18T01:25:37;10.98;;;7.78;;
37001;SDS011;22913;51.910;8.374;2022-12-18T01:28:23;10.95;;;7.15;;
37001;SDS011;22913;51.910;8.374;2022-12-18T01:31:17;13.05;;;7.60;;
37001;SDS011;22913;51.910;8.374;2022-12-18T01:34:05;14.18;;;8.70;;
37001;SDS011;22913;51.910;8.374;2022-12-18T01:36:51;15.55;;;8.82;;
37001;SDS011;22913;51.910;8.374;2022-12-18T01:39:41;19.30;;;9.55;;
37001;SDS011;22913;51.910;8.374;2022-12-18T01:42:27;11.00;;;6.50;;
37001;SDS011;22913;51.910;8.374;2022-12-18T01:45:23;8.50;;;6.28;;
37001;SDS011;22913;51.910;8.374;2022-12-18T01:48:11;8.32;;;6.00;;
37001;SDS011;22913;51.910;8.374;2022-12-18T01:50:59;8.43;;;6.50;;
37001;SDS011;22913;51.910;8.374;2022-12-18T01:53:48;7.07;;;5.95;;
37001;SDS011;22913;51.910;8.374;2022-12-18T01:56:36;9.85;;;5.97;;
37001;SDS011;22913;51.910;8.374;2022-12-18T01:59:23;9.20;;;6.00;;
37001;SDS011;22913;51.910;8.374;2022-12-18T02:02:10;9.52;;;6.53;;
37001;SDS011;22913;51.910;8.374;2022-12-18T02:04:57;8.90;;;6.13;;
37001;SDS011;22913;51.910;8.374;2022-12-18T02:07:45;15.25;;;6.50;;
37001;SDS011;22913;51.910;8.374;2022-12-18T02:10:45;8.32;;;5.88;;
37001;SDS011;22913;51.910;8.374;2022-12-18T02:13:43;7.43;;;5.45;;
37001;SDS011;22913;51.910;8.374;2022-12-18T02:16:38;9.60;;;6.10;;
37001;SDS011;22913;51.910;8.374;2022-12-18T02:19:37;7.90;;;5.78;;
37001;SDS011;22913;51.910;8.374;2022-12-18T02:22:33;10.45;;;6.47;;
37001;SDS011;22913;51.910;8.374;2022-12-18T02:25:38;11.98;;;6.20;;
37001;SDS011;22913;51.910;8.374;2022-12-18T02:28:40;12.98;;;6.63;;
37001;SDS011;22913;51.910;8.374;2022-12-18T02:31:29;12.75;;;5.75;;
37001;SDS011;22913;51.910;8.374;2022-12-18T02:34:24;9.90;;;4.80;;
37001;SDS011;22913;51.910;8.374;2022-12-18T02:37:17;7.30;;;4.82;;
37001;SDS011;22913;51.910;8.374;2022-12-18T02:40:04;8.47;;;5.57;;
37001;SDS011;22913;51.910;8.374;2022-12-18T02:42:54;8.18;;;5.18;;
37001;SDS011;22913;51.910;8.374;2022-12-18T02:45:46;10.32;;;5.15;;
37001;SDS011;22913;51.910;8.374;2022-12-18T02:48:33;6.68;;;5.03;;
37001;SDS011;22913;51.910;8.374;2022-12-18T02:51:24;7.80;;;4.75;;
37001;SDS011;22913;51.910;8.374;2022-12-18T02:54:20;6.22;;;4.60;;
37001;SDS011;22913;51.910;8.374;2022-12-18T02:57:30;5.70;;;4.35;;
37001;SDS011;22913;51.910;8.374;2022-12-18T03:00:22;7.60;;;4.10;;
37001;SDS011;22913;51.910;8.374;2022-12-18T03:03:14;5.47;;;4.50;;
37001;SDS011;22913;51.910;8.374;2022-12-18T03:06:06;9.07;;;4.95;;
37001;SDS011;22913;51.910;8.374;2022-12-18T03:08:56;7.97;;;4.77;;
37001;SDS011;22913;51.910;8.374;2022-12-18T03:11:44;6.38;;;4.35;;
37001;SDS011;22913;51.910;8.374;2022-12-18T03:14:56;6.60;;;4.63;;
37001;SDS011;22913;51.910;8.374;2022-12-18T03:17:48;6.82;;;4.70;;
37001;SDS011;22913;51.910;8.374;2022-12-18T03:20:39;10.23;;;5.00;;
37001;SDS011;22913;51.910;8.374;2022-12-18T03:23:29;5.75;;;4.53;;
37001;SDS011;22913;51.910;8.374;2022-12-18T03:26:21;6.50;;;4.78;;
37001;SDS011;22913;51.910;8.374;2022-12-18T03:29:12;5.90;;;4.70;;
37001;SDS011;22913;51.910;8.374;2022-12-18T03:32:01;5.32;;;4.47;;
37001;SDS011;22913;51.910;8.374;2022-12-18T03:34:52;6.40;;;4.70;;
37001;SDS011;22913;51.910;8.374;2022-12-18T03:37:43;8.90;;;4.72;;
37001;SDS011;22913;51.910;8.374;2022-12-18T03:40:31;5.68;;;4.22;;
37001;SDS011;22913;51.910;8.374;2022-12-18T03:43:30;7.40;;;4.60;;
37001;SDS011;22913;51.910;8.374;2022-12-18T03:46:25;7.60;;;4.88;;
37001;SDS011;22913;51.910;8.374;2022-12-18T03:49:16;9.85;;;6.10;;
37001;SDS011;22913;51.910;8.374;2022-12-18T03:52:10;8.77;;;5.10;;
37001;SDS011;22913;51.910;8.374;2022-12-18T03:54:59;7.85;;;4.78;;
37001;SDS011;22913;51.910;8.374;2022-12-18T03:57:51;5.90;;;3.70;;
37001;SDS011;22913;51.910;8.374;2022-12-18T04:00:38;7.43;;;4.50;;
37001;SDS011;22913;51.910;8.374;2022-12-18T04:03:24;6.00;;;4.00;;
37001;SDS011;22913;51.910;8.374;2022-12-18T04:06:20;5.20;;;4.28;;
37001;SDS011;22913;51.910;8.374;2022-12-18T04:09:09;6.00;;;4.43;;
37001;SDS011;22913;51.910;8.374;2022-12-18T04:11:55;6.10;;;3.97;;
37001;SDS011;22913;51.910;8.374;2022-12-18T04:14:41;5.25;;;3.47;;
37001;SDS011;22913;51.910;8.374;2022-12-18T04:17:26;4.85;;;3.72;;
37001;SDS011;22913;51.910;8.374;2022-12-18T04:20:12;5.90;;;3.78;;
37001;SDS011;22913;51.910;8.374;2022-12-18T04:22:58;4.28;;;3.60;;
37001;SDS011;22913;51.910;8.374;2022-12-18T04:25:46;4.00;;;3.60;;
37001;SDS011;22913;51.910;8.374;2022-12-18T04:28:32;5.30;;;3.75;;
37001;SDS011;22913;51.910;8.374;2022-12-18T04:31:17;4.82;;;3.75;;
37001;SDS011;22913;51.910;8.374;2022-12-18T04:34:03;5.07;;;3.40;;
37001;SDS011;22913;51.910;8.374;2022-12-18T04:36:49;5.47;;;3.50;;
37001;SDS011;22913;51.910;8.374;2022-12-18T04:39:35;6.68;;;4.05;;
37001;SDS011;22913;51.910;8.374;2022-12-18T04:42:22;11.85;;;4.25;;
37001;SDS011;22913;51.910;8.374;2022-12-18T04:45:08;4.20;;;3.63;;
37001;SDS011;22913;51.910;8.374;2022-12-18T04:47:53;5.32;;;3.88;;
37001;SDS011;22913;51.910;8.374;2022-12-18T04:50:39;6.05;;;4.13;;
37001;SDS011;22913;51.910;8.374;2022-12-18T04:53:25;5.45;;;3.72;;
37001;SDS011;22913;51.910;8.374;2022-12-18T04:56:13;4.85;;;3.88;;
37001;SDS011;22913;51.910;8.374;2022-12-18T04:59:01;6.38;;;3.63;;
37001;SDS011;22913;51.910;8.374;2022-12-18T05:01:48;5.17;;;3.83;;
37001;SDS011;22913;51.910;8.374;2022-12-18T05:04:34;4.93;;;3.75;;
37001;SDS011;22913;51.910;8.374;2022-12-18T05:07:20;6.45;;;3.67;;
37001;SDS011;22913;51.910;8.374;2022-12-18T05:10:06;7.05;;;4.60;;
37001;SDS011;22913;51.910;8.374;2022-12-18T05:12:52;5.13;;;3.97;;
37001;SDS011;22913;51.910;8.374;2022-12-18T05:15:50;10.27;;;3.97;;
37001;SDS011;22913;51.910;8.374;2022-12-18T05:18:37;6.18;;;4.40;;
37001;SDS011;22913;51.910;8.374;2022-12-18T05:21:26;6.10;;;4.03;;
37001;SDS011;22913;51.910;8.374;2022-12-18T05:24:11;5.38;;;3.55;;
37001;SDS011;22913;51.910;8.374;2022-12-18T05:26:57;7.57;;;4.22;;
37001;SDS011;22913;51.910;8.374;2022-12-18T05:29:43;6.10;;;4.50;;
37001;SDS011;22913;51.910;8.374;2022-12-18T05:32:30;7.35;;;4.85;;
37001;SDS011;22913;51.910;8.374;2022-12-18T05:35:17;4.93;;;3.80;;
37001;SDS011;22913;51.910;8.374;2022-12-18T05:38:05;4.80;;;3.85;;
37001;SDS011;22913;51.910;8.374;2022-12-18T05:40:51;5.70;;;4.07;;
37001;SDS011;22913;51.910;8.374;2022-12-18T05:43:39;9.45;;;4.20;;
37001;SDS011;22913;51.910;8.374;2022-12-18T05:46:26;5.23;;;4.10;;
37001;SDS011;22913;51.910;8.374;2022-12-18T05:49:12;6.90;;;5.03;;
37001;SDS011;22913;51.910;8.374;2022-12-18T05:51:58;7.00;;;4.80;;
37001;SDS011;22913;51.910;8.374;2022-12-18T05:54:45;5.90;;;4.38;;
37001;SDS011;22913;51.910;8.374;2022-12-18T05:57:30;7.93;;;4.70;;
37001;SDS011;22913;51.910;8.374;2022-12-18T06:00:16;6.45;;;4.40;;
37001;SDS011;22913;51.910;8.374;2022-12-18T06:03:02;4.63;;;4.07;;
37001;SDS011;22913;51.910;8.374;2022-12-18T06:05:49;7.25;;;5.18;;
37001;SDS011;22913;51.910;8.374;2022-12-18T06:08:35;6.53;;;4.53;;
37001;SDS011;22913;51.910;8.374;2022-12-18T06:11:22;7.37;;;4.47;;
37001;SDS011;22913;51.910;8.374;2022-12-18T06:14:10;9.85;;;4.82;;
37001;SDS011;22913;51.910;8.374;2022-12-18T06:16:56;6.63;;;4.63;;
37001;SDS011;22913;51.910;8.374;2022-12-18T06:19:41;5.70;;;4.80;;
37001;SDS011;22913;51.910;8.374;2022-12-18T06:22:30;5.13;;;4.43;;
37001;SDS011;22913;51.910;8.374;2022-12-18T06:25:16;8.00;;;5.27;;
37001;SDS011;22913;51.910;8.374;2022-12-18T06:28:04;6.10;;;4.67;;
37001;SDS011;22913;51.910;8.374;2022-12-18T06:30:53;8.50;;;4.83;;
37001;SDS011;22913;51.910;8.374;2022-12-18T06:33:38;10.50;;;5.20;;
37001;SDS011;22913;51.910;8.374;2022-12-18T06:36:24;6.68;;;4.60;;
37001;SDS011;22913;51.910;8.374;2022-12-18T06:39:12;9.75;;;5.03;;
37001;SDS011;22913;51.910;8.374;2022-12-18T06:41:57;6.47;;;4.57;;
37001;SDS011;22913;51.910;8.374;2022-12-18T06:44:43;8.30;;;5.23;;
37001;SDS011;22913;51.910;8.374;2022-12-18T06:47:29;6.90;;;5.03;;
37001;SDS011;22913;51.910;8.374;2022-12-18T06:50:15;7.25;;;5.38;;
37001;SDS011;22913;51.910;8.374;2022-12-18T06:53:01;9.43;;;6.03;;
37001;SDS011;22913;51.910;8.374;2022-12-18T06:55:48;8.60;;;4.88;;
37001;SDS011;22913;51.910;8.374;2022-12-18T06:58:34;8.75;;;5.30;;
37001;SDS011;22913;51.910;8.374;2022-12-18T07:01:20;7.78;;;5.30;;
37001;SDS011;22913;51.910;8.374;2022-12-18T07:04:09;8.75;;;5.03;;
37001;SDS011;22913;51.910;8.374;2022-12-18T07:06:55;6.63;;;4.85;;
37001;SDS011;22913;51.910;8.374;2022-12-18T07:09:41;7.95;;;5.07;;
37001;SDS011;22913;51.910;8.374;2022-12-18T07:12:28;7.25;;;4.80;;
37001;SDS011;22913;51.910;8.374;2022-12-18T07:15:13;9.07;;;5.10;;
37001;SDS011;22913;51.910;8.374;2022-12-18T07:17:59;6.97;;;5.32;;
37001;SDS011;22913;51.910;8.374;2022-12-18T07:20:45;9.23;;;5.47;;
37001;SDS011;22913;51.910;8.374;2022-12-18T07:23:31;6.80;;;4.97;;
37001;SDS011;22913;51.910;8.374;2022-12-18T07:26:18;6.87;;;5.37;;
37001;SDS011;22913;51.910;8.374;2022-12-18T07:29:06;7.53;;;5.23;;
37001;SDS011;22913;51.910;8.374;2022-12-18T07:31:52;9.70;;;5.20;;
37001;SDS011;22913;51.910;8.374;2022-12-18T07:34:38;7.73;;;5.53;;
37001;SDS011;22913;51.910;8.374;2022-12-18T07:37:24;6.60;;;5.13;;
37001;SDS011;22913;51.910;8.374;2022-12-18T07:40:11;6.67;;;5.23;;
37001;SDS011;22913;51.910;8.374;2022-12-18T07:42:57;8.27;;;5.30;;
37001;SDS011;22913;51.910;8.374;2022-12-18T07:45:44;7.53;;;5.23;;
37001;SDS011;22913;51.910;8.374;2022-12-18T07:48:30;9.53;;;5.57;;
37001;SDS011;22913;51.910;8.374;2022-12-18T07:51:16;9.93;;;4.90;;
37001;SDS011;22913;51.910;8.374;2022-12-18T07:54:03;7.77;;;5.07;;
37001;SDS011;22913;51.910;8.374;2022-12-18T07:56:48;8.45;;;5.35;;
37001;SDS011;22913;51.910;8.374;2022-12-18T07:59:34;8.83;;;5.20;;
37001;SDS011;22913;51.910;8.374;2022-12-18T08:02:22;7.82;;;5.18;;
37001;SDS011;22913;51.910;8.374;2022-12-18T08:05:08;10.60;;;6.55;;
37001;SDS011;22913;51.910;8.374;2022-12-18T08:07:54;6.97;;;4.93;;
37001;SDS011;22913;51.910;8.374;2022-12-18T08:10:40;7.00;;;5.03;;
37001;SDS011;22913;51.910;8.374;2022-12-18T08:13:26;5.07;;;4.50;;
37001;SDS011;22913;51.910;8.374;2022-12-18T08:16:12;6.53;;;4.80;;
37001;SDS011;22913;51.910;8.374;2022-12-18T08:18:59;8.30;;;5.27;;
37001;SDS011;22913;51.910;8.374;2022-12-18T08:21:45;6.80;;;5.43;;
37001;SDS011;22913;51.910;8.374;2022-12-18T08:24:31;8.53;;;5.10;;
37001;SDS011;22913;51.910;8.374;2022-12-18T08:27:17;7.13;;;5.28;;
37001;SDS011;22913;51.910;8.374;2022-12-18T08:30:03;8.07;;;6.00;;
37001;SDS011;22913;51.910;8.374;2022-12-18T08:32:51;10.20;;;5.47;;
37001;SDS011;22913;51.910;8.374;2022-12-18T08:35:39;6.83;;;4.60;;
37001;SDS011;22913;51.910;8.374;2022-12-18T08:38:25;8.80;;;5.43;;
37001;SDS011;22913;51.910;8.374;2022-12-18T08:41:11;6.77;;;5.70;;
37001;SDS011;22913;51.910;8.374;2022-12-18T08:43:58;7.67;;;5.43;;
37001;SDS011;22913;51.910;8.374;2022-12-18T08:47:01;9.77;;;4.87;;
37001;SDS011;22913;51.910;8.374;2022-12-18T08:49:47;8.90;;;5.27;;
37001;SDS011;22913;51.910;8.374;2022-12-18T08:52:35;8.70;;;5.83;;
37001;SDS011;22913;51.910;8.374;2022-12-18T08:55:21;8.73;;;5.10;;
37001;SDS011;22913;51.910;8.374;2022-12-18T08:58:06;9.10;;;6.00;;
37001;SDS011;22913;51.910;8.374;2022-12-18T09:00:53;9.40;;;5.70;;
37001;SDS011;22913;51.910;8.374;2022-12-18T09:03:39;12.30;;;5.97;;
37001;SDS011;22913;51.910;8.374;2022-12-18T09:06:25;6.70;;;5.80;;
37001;SDS011;22913;51.910;8.374;2022-12-18T09:09:12;9.67;;;6.03;;
37001;SDS011;22913;51.910;8.374;2022-12-18T09:11:59;6.97;;;5.67;;
37001;SDS011;22913;51.910;8.374;2022-12-18T09:14:46;8.60;;;6.30;;
37001;SDS011;22913;51.910;8.374;2022-12-18T09:17:34;7.30;;;6.43;;
37001;SDS011;22913;51.910;8.374;2022-12-18T09:20:19;9.90;;;6.07;;
37001;SDS011;22913;51.910;8.374;2022-12-18T09:23:05;10.00;;;6.63;;
37001;SDS011;22913;51.910;8.374;2022-12-18T09:25:59;8.60;;;5.67;;
37001;SDS011;22913;51.910;8.374;2022-12-18T09:28:45;9.00;;;6.00;;
37001;SDS011;22913;51.910;8.374;2022-12-18T09:31:31;8.43;;;6.17;;
37001;SDS011;22913;51.910;8.374;2022-12-18T09:34:17;10.23;;;6.60;;
37001;SDS011;22913;51.910;8.374;2022-12-18T09:37:04;8.87;;;6.80;;
37001;SDS011;22913;51.910;8.374;2022-12-18T09:39:50;10.33;;;6.40;;
37001;SDS011;22913;51.910;8.374;2022-12-18T09:42:37;8.73;;;6.50;;
37001;SDS011;22913;51.910;8.374;2022-12-18T09:45:22;9.23;;;6.10;;
37001;SDS011;22913;51.910;8.374;2022-12-18T09:48:09;9.20;;;6.27;;
37001;SDS011;22913;51.910;8.374;2022-12-18T09:51:16;7.27;;;5.57;;
37001;SDS011;22913;51.910;8.374;2022-12-18T09:54:10;7.20;;;5.77;;
37001;SDS011;22913;51.910;8.374;2022-12-18T09:56:58;8.60;;;5.80;;
37001;SDS011;22913;51.910;8.374;2022-12-18T09:59:46;8.23;;;6.43;;
37001;SDS011;22913;51.910;8.374;2022-12-18T10:02:37;11.43;;;6.17;;
37001;SDS011;22913;51.910;8.374;2022-12-18T10:05:25;8.33;;;5.93;;
37001;SDS011;22913;51.910;8.374;2022-12-18T10:08:20;10.53;;;6.63;;
37001;SDS011;22913;51.910;8.374;2022-12-18T10:11:19;9.37;;;6.00;;
37001;SDS011;22913;51.910;8.374;2022-12-18T10:14:15;7.90;;;6.10;;
37001;SDS011;22913;51.910;8.374;2022-12-18T10:17:13;6.40;;;5.33;;
37001;SDS011;22913;51.910;8.374;2022-12-18T10:20:09;7.87;;;5.83;;
37001;SDS011;22913;51.910;8.374;2022-12-18T10:23:00;8.30;;;6.20;;
37001;SDS011;22913;51.910;8.374;2022-12-18T10:25:59;8.33;;;6.20;;
37001;SDS011;22913;51.910;8.374;2022-12-18T10:28:48;7.47;;;5.37;;
37001;SDS011;22913;51.910;8.374;2022-12-18T10:31:34;7.50;;;5.97;;
37001;SDS011;22913;51.910;8.374;2022-12-18T10:34:21;6.97;;;5.30;;
37001;SDS011;22913;51.910;8.374;2022-12-18T10:37:10;8.73;;;5.70;;
37001;SDS011;22913;51.910;8.374;2022-12-18T10:40:08;6.00;;;5.13;;
37001;SDS011;22913;51.910;8.374;2022-12-18T10:43:09;7.80;;;5.77;;
37001;SDS011;22913;51.910;8.374;2022-12-18T10:46:01;6.17;;;4.97;;
37001;SDS011;22913;51.910;8.374;2022-12-18T10:48:56;7.87;;;4.93;;
37001;SDS011;22913;51.910;8.374;2022-12-18T10:51:44;5.63;;;5.03;;
37001;SDS011;22913;51.910;8.374;2022-12-18T10:54:30;5.37;;;4.63;;
37001;SDS011;22913;51.910;8.374;2022-12-18T10:57:17;6.00;;;5.00;;
37001;SDS011;22913;51.910;8.374;2022-12-18T11:00:25;6.13;;;5.13;;
37001;SDS011;22913;51.910;8.374;2022-12-18T11:03:28;5.93;;;5.00;;
37001;SDS011;22913;51.910;8.374;2022-12-18T11:06:17;7.10;;;5.27;;
37001;SDS011;22913;51.910;8.374;2022-12-18T11:09:18;7.23;;;5.33;;
37001;SDS011;22913;51.910;8.374;2022-12-18T11:12:13;5.83;;;4.87;;
37001;SDS011;22913;51.910;8.374;2022-12-18T11:15:01;6.67;;;5.03;;
37001;SDS011;22913;51.910;8.374;2022-12-18T11:17:48;6.07;;;5.47;;
37001;SDS011;22913;51.910;8.374;2022-12-18T11:20:35;5.80;;;4.80;;
37001;SDS011;22913;51.910;8.374;2022-12-18T11:23:21;5.30;;;4.70;;
37001;SDS011;22913;51.910;8.374;2022-12-18T11:26:09;5.80;;;5.20;;
37001;SDS011;22913;51.910;8.374;2022-12-18T11:29:08;5.03;;;4.53;;
37001;SDS011;22913;51.910;8.374;2022-12-18T11:32:05;6.60;;;4.40;;
37001;SDS011;22913;51.910;8.374;2022-12-18T11:35:17;7.73;;;4.77;;
37001;SDS011;22913;51.910;8.374;2022-12-18T11:38:11;5.00;;;4.47;;
37001;SDS011;22913;51.910;8.374;2022-12-18T11:41:04;5.73;;;4.93;;
37001;SDS011;22913;51.910;8.374;2022-12-18T11:43:59;4.97;;;4.50;;
37001;SDS011;22913;51.910;8.374;2022-12-18T11:46:49;5.03;;;4.53;;
37001;SDS011;22913;51.910;8.374;2022-12-18T11:49:38;5.47;;;4.50;;
37001;SDS011;22913;51.910;8.374;2022-12-18T11:52:26;5.60;;;4.20;;
37001;SDS011;22913;51.910;8.374;2022-12-18T11:55:19;5.10;;;4.17;;
37001;SDS011;22913;51.910;8.374;2022-12-18T11:58:15;5.20;;;4.27;;
37001;SDS011;22913;51.910;8.374;2022-12-18T12:01:13;5.50;;;4.13;;
37001;SDS011;22913;51.910;8.374;2022-12-18T12:04:13;5.17;;;4.30;;
37001;SDS011;22913;51.910;8.374;2022-12-18T12:07:18;5.77;;;4.97;;
37001;SDS011;22913;51.910;8.374;2022-12-18T12:10:26;5.93;;;4.53;;
37001;SDS011;22913;51.910;8.374;2022-12-18T12:13:28;5.17;;;4.63;;
37001;SDS011;22913;51.910;8.374;2022-12-18T12:16:26;8.43;;;4.50;;
37001;SDS011;22913;51.910;8.374;2022-12-18T12:19:20;6.70;;;4.60;;
37001;SDS011;22913;51.910;8.374;2022-12-18T12:22:20;5.00;;;4.17;;
37001;SDS011;22913;51.910;8.374;2022-12-18T12:25:15;6.40;;;4.53;;
37001;SDS011;22913;51.910;8.374;2022-12-18T12:28:15;6.53;;;4.67;;
37001;SDS011;22913;51.910;8.374;2022-12-18T12:31:08;6.20;;;4.30;;
37001;SDS011;22913;51.910;8.374;2022-12-18T12:34:04;7.10;;;4.57;;
37001;SDS011;22913;51.910;8.374;2022-12-18T12:37:03;4.73;;;4.17;;
37001;SDS011;22913;51.910;8.374;2022-12-18T12:40:05;7.17;;;4.57;;
37001;SDS011;22913;51.910;8.374;2022-12-18T12:43:02;7.10;;;4.80;;
37001;SDS011;22913;51.910;8.374;2022-12-18T12:46:12;5.83;;;4.47;;
37001;SDS011;22913;51.910;8.374;2022-12-18T12:49:00;5.33;;;4.10;;
37001;SDS011;22913;51.910;8.374;2022-12-18T12:51:55;5.73;;;4.90;;
37001;SDS011;22913;51.910;8.374;2022-12-18T12:54:58;8.87;;;5.53;;
37001;SDS011;22913;51.910;8.374;2022-12-18T12:57:45;6.40;;;4.43;;
37001;SDS011;22913;51.910;8.374;2022-12-18T13:00:35;5.67;;;4.30;;
37001;SDS011;22913;51.910;8.374;2022-12-18T13:03:29;5.23;;;4.17;;
37001;SDS011;22913;51.910;8.374;2022-12-18T13:06:31;6.43;;;4.17;;
37001;SDS011;22913;51.910;8.374;2022-12-18T13:09:23;7.43;;;4.43;;
37001;SDS011;22913;51.910;8.374;2022-12-18T13:12:15;6.73;;;4.67;;
37001;SDS011;22913;51.910;8.374;2022-12-18T13:15:20;6.90;;;4.33;;
37001;SDS011;22913;51.910;8.374;2022-12-18T13:21:18;4.93;;;4.30;;
37001;SDS011;22913;51.910;8.374;2022-12-18T13:24:15;5.30;;;4.27;;
37001;SDS011;22913;51.910;8.374;2022-12-18T13:30:44;5.80;;;4.17;;
37001;SDS011;22913;51.910;8.374;2022-12-18T13:36:30;5.40;;;4.50;;
37001;SDS011;22913;51.910;8.374;2022-12-18T13:45:48;5.73;;;4.23;;
37001;SDS011;22913;51.910;8.374;2022-12-18T13:51:35;4.03;;;3.50;;
37001;SDS011;22913;51.910;8.374;2022-12-18T13:54:28;6.83;;;3.80;;
37001;SDS011;22913;51.910;8.374;2022-12-18T13:57:29;4.73;;;4.23;;
37001;SDS011;22913;51.910;8.374;2022-12-18T14:00:23;3.97;;;3.57;;
37001;SDS011;22913;51.910;8.374;2022-12-18T14:03:16;5.30;;;4.13;;
37001;SDS011;22913;51.910;8.374;2022-12-18T14:06:05;8.20;;;4.30;;
37001;SDS011;22913;51.910;8.374;2022-12-18T14:08:53;4.20;;;3.80;;
37001;SDS011;22913;51.910;8.374;2022-12-18T14:11:38;4.83;;;3.70;;
37001;SDS011;22913;51.910;8.374;2022-12-18T14:14:25;5.43;;;3.90;;
37001;SDS011;22913;51.910;8.374;2022-12-18T14:17:11;6.33;;;4.10;;
37001;SDS011;22913;51.910;8.374;2022-12-18T14:19:57;5.60;;;4.57;;
37001;SDS011;22913;51.910;8.374;2022-12-18T14:22:43;5.70;;;4.30;;
37001;SDS011;22913;51.910;8.374;2022-12-18T14:25:30;5.00;;;3.67;;
37001;SDS011;22913;51.910;8.374;2022-12-18T14:28:16;4.67;;;4.13;;
37001;SDS011;22913;51.910;8.374;2022-12-18T14:31:03;4.57;;;4.10;;
37001;SDS011;22913;51.910;8.374;2022-12-18T14:33:49;6.73;;;4.90;;
37001;SDS011;22913;51.910;8.374;2022-12-18T14:36:35;6.63;;;5.33;;
37001;SDS011;22913;51.910;8.374;2022-12-18T14:39:23;7.00;;;4.97;;
37001;SDS011;22913;51.910;8.374;2022-12-18T14:42:10;5.97;;;4.30;;
37001;SDS011;22913;51.910;8.374;2022-12-18T14:48:20;6.20;;;4.57;;
37001;SDS011;22913;51.910;8.374;2022-12-18T14:51:12;4.70;;;3.83;;
37001;SDS011;22913;51.910;8.374;2022-12-18T14:54:02;5.27;;;3.87;;
37001;SDS011;22913;51.910;8.374;2022-12-18T14:56:51;8.23;;;4.30;;
37001;SDS011;22913;51.910;8.374;2022-12-18T14:59:41;5.07;;;4.30;;
37001;SDS011;22913;51.910;8.374;2022-12-18T15:02:27;5.13;;;4.37;;
37001;SDS011;22913;51.910;8.374;2022-12-18T15:05:18;5.97;;;4.17;;
37001;SDS011;22913;51.910;8.374;2022-12-18T15:11:27;4.70;;;3.90;;
37001;SDS011;22913;51.910;8.374;2022-12-18T15:14:28;7.20;;;4.53;;
37001;SDS011;22913;51.910;8.374;2022-12-18T15:17:17;7.30;;;4.60;;
37001;SDS011;22913;51.910;8.374;2022-12-18T15:20:09;5.37;;;4.53;;
37001;SDS011;22913;51.910;8.374;2022-12-18T15:22:57;6.40;;;4.53;;
37001;SDS011;22913;51.910;8.374;2022-12-18T15:25:42;6.40;;;4.63;;
37001;SDS011;22913;51.910;8.374;2022-12-18T15:28:29;7.30;;;4.60;;
37001;SDS011;22913;51.910;8.374;2022-12-18T15:31:22;6.97;;;4.60;;
37001;SDS011;22913;51.910;8.374;2022-12-18T15:34:10;6.17;;;4.57;;
37001;SDS011;22913;51.910;8.374;2022-12-18T15:36:59;7.30;;;5.33;;
37001;SDS011;22913;51.910;8.374;2022-12-18T15:39:45;6.80;;;4.80;;
37001;SDS011;22913;51.910;8.374;2022-12-18T15:42:31;6.73;;;5.00;;
37001;SDS011;22913;51.910;8.374;2022-12-18T15:45:34;6.47;;;4.50;;
37001;SDS011;22913;51.910;8.374;2022-12-18T15:48:21;6.57;;;5.20;;
37001;SDS011;22913;51.910;8.374;2022-12-18T15:51:09;7.87;;;5.00;;
37001;SDS011;22913;51.910;8.374;2022-12-18T15:53:59;6.80;;;4.83;;
37001;SDS011;22913;51.910;8.374;2022-12-18T15:56:48;7.30;;;5.07;;
37001;SDS011;22913;51.910;8.374;2022-12-18T15:59:53;7.27;;;5.57;;
37001;SDS011;22913;51.910;8.374;2022-12-18T16:02:41;10.20;;;5.50;;
37001;SDS011;22913;51.910;8.374;2022-12-18T16:05:28;9.33;;;6.07;;
37001;SDS011;22913;51.910;8.374;2022-12-18T16:08:13;8.80;;;6.30;;
37001;SDS011;22913;51.910;8.374;2022-12-18T16:10:59;8.03;;;5.80;;
37001;SDS011;22913;51.910;8.374;2022-12-18T16:13:46;9.17;;;6.33;;
37001;SDS011;22913;51.910;8.374;2022-12-18T16:16:32;9.33;;;6.33;;
37001;SDS011;22913;51.910;8.374;2022-12-18T16:19:17;6.93;;;6.20;;
37001;SDS011;22913;51.910;8.374;2022-12-18T16:22:04;13.83;;;6.63;;
37001;SDS011;22913;51.910;8.374;2022-12-18T16:24:50;9.00;;;6.10;;
37001;SDS011;22913;51.910;8.374;2022-12-18T16:27:36;12.23;;;6.70;;
37001;SDS011;22913;51.910;8.374;2022-12-18T16:30:24;9.03;;;6.80;;
37001;SDS011;22913;51.910;8.374;2022-12-18T16:33:11;11.23;;;6.73;;
37001;SDS011;22913;51.910;8.374;2022-12-18T16:35:57;10.73;;;7.37;;
37001;SDS011;22913;51.910;8.374;2022-12-18T16:38:42;9.30;;;7.30;;
37001;SDS011;22913;51.910;8.374;2022-12-18T16:41:28;9.73;;;7.47;;
37001;SDS011;22913;51.910;8.374;2022-12-18T16:44:16;10.33;;;7.33;;
37001;SDS011;22913;51.910;8.374;2022-12-18T16:47:03;11.47;;;7.57;;
37001;SDS011;22913;51.910;8.374;2022-12-18T16:49:49;13.37;;;8.30;;
37001;SDS011;22913;51.910;8.374;2022-12-18T16:52:35;8.40;;;6.77;;
37001;SDS011;22913;51.910;8.374;2022-12-18T16:55:21;9.67;;;7.27;;
37001;SDS011;22913;51.910;8.374;2022-12-18T16:58:07;11.00;;;6.40;;
37001;SDS011;22913;51.910;8.374;2022-12-18T17:00:52;11.73;;;6.73;;
37001;SDS011;22913;51.910;8.374;2022-12-18T17:03:39;9.27;;;7.43;;
37001;SDS011;22913;51.910;8.374;2022-12-18T17:06:25;10.90;;;7.43;;
37001;SDS011;22913;51.910;8.374;2022-12-18T17:09:13;11.57;;;7.50;;
37001;SDS011;22913;51.910;8.374;2022-12-18T17:11:59;8.47;;;7.03;;
37001;SDS011;22913;51.910;8.374;2022-12-18T17:14:45;13.47;;;8.83;;
37001;SDS011;22913;51.910;8.374;2022-12-18T17:17:31;12.63;;;8.30;;
37001;SDS011;22913;51.910;8.374;2022-12-18T17:20:18;10.40;;;8.60;;
37001;SDS011;22913;51.910;8.374;2022-12-18T17:23:03;11.27;;;8.33;;
37001;SDS011;22913;51.910;8.374;2022-12-18T17:25:49;11.60;;;8.20;;